Terminal Aerodrome Forecast
Issued by NWS Midland/Odessa, TX

Home | Current Version | Previous Version | Text Only | Print | Product List | Glossary On
Versions: 1 2 3 4 5 6 7 8 9 10 11 12 13 14 15 16 17 18 19
000
FTUS44 KMAF 222100 AAA
TAFMAF
TAF AMD
KMAF 222132Z 2222/2318 19010KT P6SM -SHRA FEW020 BKN040
     FM230200 17006KT P6SM SCT050 BKN100
     FM231100 VRB04KT 5SM BR SKC
      TEMPO 2311/2314 2SM BR
     FM231400 20007KT P6SM FEW250=

USA.gov is the U.S. government's official web portal to all federal, state and local government web resources and services.